AKDT,Max TemperatureF,Mean TemperatureF,Min TemperatureF,Max Dew PointF,MeanDew PointF,Min DewpointF,Max Humidity, Mean Humidity, Min Humidity, Max Sea Level PressureIn, Mean Sea Level PressureIn, Min Sea Level PressureIn, Max VisibilityMiles, Mean VisibilityMiles, Min VisibilityMiles, Max Wind SpeedMPH, Mean Wind SpeedMPH, Max Gust SpeedMPH,PrecipitationIn, CloudCover, Events, WindDirDegrees
2012-10-1,50,48,46,43,41,38,87,78,63,30.00,29.72,29.43,10,6,2,36,18,52,1.31,8,Rain,158
2012-10-2,51,48,46,44,42,40,83,79,71,29.74,29.58,29.41,10,10,8,26,14,38,0.15,6,Rain,162
2012-10-3,52,48,46,48,45,36,93,84,66,29.53,29.21,28.92,10,6,2,29,20,55,0.31,8,Rain,144
2012-10-4,50,47,44,37,35,33,73,65,52,29.76,29.53,29.32,10,10,10,23,15,32,0.03,6,Rain,212
2012-10-5,48,46,43,39,37,35,81,71,61,30.05,29.94,29.78,10,10,10,17,11,24,0.00,6,Rain,202
2012-10-6,48,46,43,45,39,33,93,78,65,30.05,29.86,29.70,10,8,2,28,10,39,0.28,7,Rain,111
2012-10-7,55,50,46,50,47,45,93,86,77,29.83,29.69,29.62,10,9,5,22,8,21,0.16,7,Rain,131
2012-10-8,55,52,50,49,47,46,89,84,75,29.90,29.85,29.81,10,8,2,18,10,29,0.11,8,Rain,142
2012-10-9,51,48,46,47,44,43,93,87,80,29.89,29.81,29.73,10,7,3,21,16,32,0.02,8,Rain,107
2012-10-10,51,48,46,46,45,44,93,86,76,29.74,29.60,29.43,10,7,2,18,9,30,0.05,8,Rain,94
2012-10-11,48,48,48,46,45,44,93,88,83,29.42,29.25,29.15,10,5,1,36,20,48,0.27,8,Rain,91
2012-10-12,48,46,42,45,42,34,93,86,73,29.37,29.21,29.15,10,6,2,21,14,38,0.05,8,Rain,29
2012-10-13,42,39,36,34,29,25,82,67,57,29.65,29.51,29.40,10,10,6,36,23,47,0.00,8,Rain,341
2012-10-14,42,39,37,34,31,26,82,71,60,29.78,29.72,29.65,10,10,5,31,24,43,0.05,8,Rain-Snow,320
2012-10-15,42,38,35,36,32,28,87,78,63,30.02,29.90,29.76,10,9,2,24,15,33,0.14,8,Rain-Snow,328
2012-10-16,39,36,33,30,26,20,87,66,48,30.29,30.15,30.03,10,9,3,25,18,32,0.01,7,Rain-Snow,332
2012-10-17,42,36,33,33,29,24,89,74,57,30.39,30.34,30.29,10,9,2,24,11,31,0.00,8,Rain-Snow,306
2012-10-18,41,38,35,34,29,25,87,70,56,30.53,30.45,30.35,10,9,4,28,18,40,0.05,8,Rain-Snow,333
2012-10-19,43,40,37,34,31,27,81,70,60,30.62,30.58,30.51,10,10,10,15,9,20,0.00,8,Rain,302
2012-10-20,44,40,36,36,33,30,86,76,65,30.63,30.56,30.45,10,10,10,7,1,,0.00,7,Rain,178
2012-10-21,48,44,41,40,37,34,86,76,70,30.44,30.37,30.33,10,10,10,9,5,,0.00,7,Rain,189
2012-10-22,45,44,43,39,38,36,86,78,71,30.39,30.29,30.16,10,10,8,22,8,30,0.00,8,Rain,139
2012-10-23,44,43,42,38,35,33,82,74,65,30.15,30.03,29.97,10,10,9,31,21,55,0.00,8,Rain,117
2012-10-24,44,42,39,35,33,30,79,69,60,30.19,30.13,30.07,10,10,7,25,17,33,0.02,8,Rain,76
2012-10-25,46,44,41,36,33,29,81,69,60,30.27,30.23,30.19,10,10,9,12,6,,0.02,8,Rain,43
2012-10-26,46,44,42,36,33,30,76,66,58,30.18,30.04,29.91,10,10,10,23,14,34,0.00,6,Rain,27
2012-10-27,46,43,41,35,33,31,74,69,62,29.94,29.88,29.84,10,10,10,15,11,21,0.00,6,Rain,22
2012-10-28,46,43,41,36,33,30,79,69,60,30.18,30.06,29.95,10,10,10,13,6,,0.00,5,,11
2012-10-29,43,40,37,34,32,31,82,73,65,30.29,30.25,30.19,10,10,10,12,6,22,0.00,6,,325
2012-10-30,41,38,35,34,27,21,82,68,56,30.35,30.31,30.28,10,10,7,21,13,41,0.00,8,Rain,44
2012-10-31,36,33,30,28,25,19,87,70,52,30.28,30.13,30.00,10,7,2,39,18,60,0.03,8,Rain-Snow,358